Anthony, Kansas
Current Conditions -  °F | °C
As of 8:10 AM on Saturday 01 Nov 2014 (Local Time) from KAVK Reporting Station
Clear Clear  
Wind Chill: 23°   Ceiling: Unl
Heat Index: 30°   Visibility: 10mi
Dew Point: 23°   Wind: 8mph
Humidity: 75%   Direction: 160°SSE
Pressure: 30.38"   Gusts: NA
Location:  37.15°N, 98.03°W
Report Text: KAVK 011310Z AUTO 16007KT 10SM CLR M01/M05 A3038 RMK AO2
Loading
Personal Weather Stations






























Interactive Weather Map
Tropical Storm Tracking
New forecast layout! Learn more

10-Day Weather Forecast

Advertisements
Track Severe Weather on mobile